sensor_id;sensor_type;location;lat;lon;timestamp;temperature;humidity
25504;DHT22;13410;52.114;5.718;2023-03-23T00:00:59;15.90;99.90
25504;DHT22;13410;52.114;5.718;2023-03-23T00:03:26;16.00;99.90
25504;DHT22;13410;52.114;5.718;2023-03-23T00:05:54;16.00;99.90
25504;DHT22;13410;52.114;5.718;2023-03-23T00:08:25;15.80;99.90
25504;DHT22;13410;52.114;5.718;2023-03-23T00:10:51;16.00;99.90
25504;DHT22;13410;52.114;5.718;2023-03-23T00:13:27;15.90;99.90
25504;DHT22;13410;52.114;5.718;2023-03-23T00:15:52;15.90;99.90
25504;DHT22;13410;52.114;5.718;2023-03-23T00:18:19;16.00;99.90
25504;DHT22;13410;52.114;5.718;2023-03-23T00:21:05;16.00;99.90
25504;DHT22;13410;52.114;5.718;2023-03-23T00:23:32;15.90;99.90
25504;DHT22;13410;52.114;5.718;2023-03-23T00:25:59;15.90;99.90
25504;DHT22;13410;52.114;5.718;2023-03-23T00:28:26;15.90;99.90
25504;DHT22;13410;52.114;5.718;2023-03-23T00:31:00;15.80;99.90
25504;DHT22;13410;52.114;5.718;2023-03-23T00:33:32;16.10;99.90
25504;DHT22;13410;52.114;5.718;2023-03-23T00:36:12;16.00;99.90
25504;DHT22;13410;52.114;5.718;2023-03-23T00:38:40;15.90;99.90
25504;DHT22;13410;52.114;5.718;2023-03-23T00:41:07;15.70;99.90
25504;DHT22;13410;52.114;5.718;2023-03-23T00:43:33;15.70;99.90
25504;DHT22;13410;52.114;5.718;2023-03-23T00:46:02;15.70;99.90
25504;DHT22;13410;52.114;5.718;2023-03-23T00:48:34;15.30;99.90
25504;DHT22;13410;52.114;5.718;2023-03-23T00:51:02;15.20;99.90
25504;DHT22;13410;52.114;5.718;2023-03-23T00:53:32;15.30;99.90
25504;DHT22;13410;52.114;5.718;2023-03-23T00:55:58;15.40;99.90
25504;DHT22;13410;52.114;5.718;2023-03-23T00:58:24;15.40;99.90
25504;DHT22;13410;52.114;5.718;2023-03-23T01:00:50;15.40;99.90
25504;DHT22;13410;52.114;5.718;2023-03-23T01:03:15;15.60;99.90
25504;DHT22;13410;52.114;5.718;2023-03-23T01:05:44;15.70;99.90
25504;DHT22;13410;52.114;5.718;2023-03-23T01:08:13;15.70;99.90
25504;DHT22;13410;52.114;5.718;2023-03-23T01:10:39;15.80;99.90
25504;DHT22;13410;52.114;5.718;2023-03-23T01:13:07;15.80;99.90
25504;DHT22;13410;52.114;5.718;2023-03-23T01:15:32;15.90;99.90
25504;DHT22;13410;52.114;5.718;2023-03-23T01:17:58;15.80;99.90
25504;DHT22;13410;52.114;5.718;2023-03-23T01:20:24;15.70;99.90
25504;DHT22;13410;52.114;5.718;2023-03-23T01:22:49;15.70;99.90
25504;DHT22;13410;52.114;5.718;2023-03-23T01:25:15;15.90;99.90
25504;DHT22;13410;52.114;5.718;2023-03-23T01:27:41;15.80;99.90
25504;DHT22;13410;52.114;5.718;2023-03-23T01:30:09;15.60;99.90
25504;DHT22;13410;52.114;5.718;2023-03-23T01:32:35;15.70;99.90
25504;DHT22;13410;52.114;5.718;2023-03-23T01:35:01;15.80;99.90
25504;DHT22;13410;52.114;5.718;2023-03-23T01:37:27;15.80;99.90
25504;DHT22;13410;52.114;5.718;2023-03-23T01:39:53;15.80;99.90
25504;DHT22;13410;52.114;5.718;2023-03-23T01:42:29;15.90;99.90
25504;DHT22;13410;52.114;5.718;2023-03-23T01:47:39;16.00;99.90
25504;DHT22;13410;52.114;5.718;2023-03-23T01:50:05;16.00;99.90
25504;DHT22;13410;52.114;5.718;2023-03-23T01:52:31;16.00;99.90
25504;DHT22;13410;52.114;5.718;2023-03-23T01:54:59;16.10;99.90
25504;DHT22;13410;52.114;5.718;2023-03-23T01:57:25;16.20;99.90
25504;DHT22;13410;52.114;5.718;2023-03-23T01:59:57;16.20;99.90
25504;DHT22;13410;52.114;5.718;2023-03-23T02:02:32;16.10;99.90
25504;DHT22;13410;52.114;5.718;2023-03-23T02:05:04;16.20;99.90
25504;DHT22;13410;52.114;5.718;2023-03-23T02:07:34;16.20;99.90
25504;DHT22;13410;52.114;5.718;2023-03-23T02:10:01;16.10;99.90
25504;DHT22;13410;52.114;5.718;2023-03-23T02:12:27;16.00;99.90
25504;DHT22;13410;52.114;5.718;2023-03-23T02:14:52;16.10;99.90
25504;DHT22;13410;52.114;5.718;2023-03-23T02:17:25;16.20;99.90
25504;DHT22;13410;52.114;5.718;2023-03-23T02:25:40;16.00;99.90
25504;DHT22;13410;52.114;5.718;2023-03-23T02:36:39;16.30;99.90
25504;DHT22;13410;52.114;5.718;2023-03-23T02:38:56;16.20;99.90
25504;DHT22;13410;52.114;5.718;2023-03-23T02:41:27;16.00;99.90
25504;DHT22;13410;52.114;5.718;2023-03-23T02:43:56;16.10;99.90
25504;DHT22;13410;52.114;5.718;2023-03-23T02:46:24;16.10;99.90
25504;DHT22;13410;52.114;5.718;2023-03-23T02:48:53;16.00;99.90
25504;DHT22;13410;52.114;5.718;2023-03-23T02:51:20;16.00;99.90
25504;DHT22;13410;52.114;5.718;2023-03-23T02:53:48;15.90;99.90
25504;DHT22;13410;52.114;5.718;2023-03-23T02:56:17;15.90;99.90
25504;DHT22;13410;52.114;5.718;2023-03-23T02:58:44;15.80;99.90
25504;DHT22;13410;52.114;5.718;2023-03-23T03:01:45;15.90;99.90
25504;DHT22;13410;52.114;5.718;2023-03-23T03:04:22;16.00;99.90
25504;DHT22;13410;52.114;5.718;2023-03-23T03:07:01;16.10;99.90
25504;DHT22;13410;52.114;5.718;2023-03-23T03:12:09;16.00;99.90
25504;DHT22;13410;52.114;5.718;2023-03-23T03:14:41;16.00;99.90
25504;DHT22;13410;52.114;5.718;2023-03-23T03:17:16;16.10;99.90
25504;DHT22;13410;52.114;5.718;2023-03-23T03:19:47;16.20;99.90
25504;DHT22;13410;52.114;5.718;2023-03-23T03:22:15;16.10;99.90
25504;DHT22;13410;52.114;5.718;2023-03-23T03:24:42;16.20;99.90
25504;DHT22;13410;52.114;5.718;2023-03-23T03:27:14;16.10;99.90
25504;DHT22;13410;52.114;5.718;2023-03-23T03:29:43;16.00;99.90
25504;DHT22;13410;52.114;5.718;2023-03-23T03:32:14;16.10;99.90
25504;DHT22;13410;52.114;5.718;2023-03-23T03:34:41;16.30;99.90
25504;DHT22;13410;52.114;5.718;2023-03-23T03:37:08;16.10;99.90
25504;DHT22;13410;52.114;5.718;2023-03-23T03:39:37;16.10;99.90
25504;DHT22;13410;52.114;5.718;2023-03-23T03:42:04;16.10;99.90
25504;DHT22;13410;52.114;5.718;2023-03-23T03:44:30;16.10;99.90
25504;DHT22;13410;52.114;5.718;2023-03-23T03:46:56;16.00;99.90
25504;DHT22;13410;52.114;5.718;2023-03-23T03:49:21;16.10;99.90
25504;DHT22;13410;52.114;5.718;2023-03-23T03:51:48;15.90;99.90
25504;DHT22;13410;52.114;5.718;2023-03-23T03:54:15;16.00;99.90
25504;DHT22;13410;52.114;5.718;2023-03-23T03:56:41;16.20;99.90
25504;DHT22;13410;52.114;5.718;2023-03-23T03:59:08;16.10;99.90
25504;DHT22;13410;52.114;5.718;2023-03-23T04:01:36;16.10;99.90
25504;DHT22;13410;52.114;5.718;2023-03-23T04:04:01;16.20;99.90
25504;DHT22;13410;52.114;5.718;2023-03-23T04:06:28;16.20;99.90
25504;DHT22;13410;52.114;5.718;2023-03-23T04:08:57;16.30;99.90
25504;DHT22;13410;52.114;5.718;2023-03-23T04:11:25;16.20;99.90
25504;DHT22;13410;52.114;5.718;2023-03-23T04:13:51;16.20;99.90
25504;DHT22;13410;52.114;5.718;2023-03-23T04:16:17;16.20;99.90
25504;DHT22;13410;52.114;5.718;2023-03-23T04:18:43;16.10;99.90
25504;DHT22;13410;52.114;5.718;2023-03-23T04:21:10;16.20;99.90
25504;DHT22;13410;52.114;5.718;2023-03-23T04:23:36;16.20;99.90
25504;DHT22;13410;52.114;5.718;2023-03-23T04:26:03;16.30;99.90
25504;DHT22;13410;52.114;5.718;2023-03-23T04:28:30;16.40;99.90
25504;DHT22;13410;52.114;5.718;2023-03-23T04:30:59;16.30;99.90
25504;DHT22;13410;52.114;5.718;2023-03-23T04:33:26;16.20;99.90
25504;DHT22;13410;52.114;5.718;2023-03-23T04:35:53;16.20;99.90
25504;DHT22;13410;52.114;5.718;2023-03-23T04:38:21;16.20;99.90
25504;DHT22;13410;52.114;5.718;2023-03-23T04:40:51;16.20;99.90
25504;DHT22;13410;52.114;5.718;2023-03-23T04:43:22;16.30;99.90
25504;DHT22;13410;52.114;5.718;2023-03-23T04:45:55;16.30;99.90
25504;DHT22;13410;52.114;5.718;2023-03-23T04:48:26;16.10;99.90
25504;DHT22;13410;52.114;5.718;2023-03-23T04:50:52;16.10;99.90
25504;DHT22;13410;52.114;5.718;2023-03-23T04:53:18;16.30;99.90
25504;DHT22;13410;52.114;5.718;2023-03-23T04:55:45;16.10;99.90
25504;DHT22;13410;52.114;5.718;2023-03-23T04:58:13;15.90;99.90
25504;DHT22;13410;52.114;5.718;2023-03-23T05:00:40;15.90;99.90
25504;DHT22;13410;52.114;5.718;2023-03-23T05:03:05;15.90;99.90
25504;DHT22;13410;52.114;5.718;2023-03-23T05:05:33;15.80;99.90
25504;DHT22;13410;52.114;5.718;2023-03-23T05:08:00;15.90;99.90
25504;DHT22;13410;52.114;5.718;2023-03-23T05:10:25;15.90;99.90
25504;DHT22;13410;52.114;5.718;2023-03-23T05:12:53;16.10;99.90
25504;DHT22;13410;52.114;5.718;2023-03-23T05:15:20;16.10;99.90
25504;DHT22;13410;52.114;5.718;2023-03-23T05:17:46;16.10;99.90
25504;DHT22;13410;52.114;5.718;2023-03-23T05:20:13;16.10;99.90
25504;DHT22;13410;52.114;5.718;2023-03-23T05:22:41;16.30;99.90
25504;DHT22;13410;52.114;5.718;2023-03-23T05:25:08;16.30;99.90
25504;DHT22;13410;52.114;5.718;2023-03-23T05:27:35;16.30;99.90
25504;DHT22;13410;52.114;5.718;2023-03-23T05:30:01;16.20;99.90
25504;DHT22;13410;52.114;5.718;2023-03-23T05:32:27;16.10;99.90
25504;DHT22;13410;52.114;5.718;2023-03-23T05:34:57;16.10;99.90
25504;DHT22;13410;52.114;5.718;2023-03-23T05:37:23;16.10;99.90
25504;DHT22;13410;52.114;5.718;2023-03-23T05:39:49;16.10;99.90
25504;DHT22;13410;52.114;5.718;2023-03-23T05:42:19;16.20;99.90
25504;DHT22;13410;52.114;5.718;2023-03-23T05:44:45;16.20;99.90
25504;DHT22;13410;52.114;5.718;2023-03-23T05:47:11;16.30;99.90
25504;DHT22;13410;52.114;5.718;2023-03-23T05:49:36;16.10;99.90
25504;DHT22;13410;52.114;5.718;2023-03-23T05:52:04;16.20;99.90
25504;DHT22;13410;52.114;5.718;2023-03-23T05:54:30;16.10;99.90
25504;DHT22;13410;52.114;5.718;2023-03-23T05:56:57;16.20;99.90
25504;DHT22;13410;52.114;5.718;2023-03-23T05:59:22;16.30;99.90
25504;DHT22;13410;52.114;5.718;2023-03-23T06:01:48;16.20;99.90
25504;DHT22;13410;52.114;5.718;2023-03-23T06:04:16;16.20;99.90
25504;DHT22;13410;52.114;5.718;2023-03-23T06:06:42;16.30;99.90
25504;DHT22;13410;52.114;5.718;2023-03-23T06:09:09;16.20;99.90
25504;DHT22;13410;52.114;5.718;2023-03-23T06:11:35;16.40;99.90
25504;DHT22;13410;52.114;5.718;2023-03-23T06:14:01;16.50;99.90
25504;DHT22;13410;52.114;5.718;2023-03-23T06:16:27;16.50;99.90
25504;DHT22;13410;52.114;5.718;2023-03-23T06:18:52;16.50;99.90
25504;DHT22;13410;52.114;5.718;2023-03-23T06:21:19;16.40;99.90
25504;DHT22;13410;52.114;5.718;2023-03-23T06:23:47;16.40;99.90
25504;DHT22;13410;52.114;5.718;2023-03-23T06:26:14;16.40;99.90
25504;DHT22;13410;52.114;5.718;2023-03-23T06:28:46;16.30;99.90
25504;DHT22;13410;52.114;5.718;2023-03-23T06:31:14;16.20;99.90
25504;DHT22;13410;52.114;5.718;2023-03-23T06:33:40;16.20;99.90
25504;DHT22;13410;52.114;5.718;2023-03-23T06:36:06;16.00;99.90
25504;DHT22;13410;52.114;5.718;2023-03-23T06:38:32;15.90;99.90
25504;DHT22;13410;52.114;5.718;2023-03-23T06:40:58;15.90;99.90
25504;DHT22;13410;52.114;5.718;2023-03-23T06:43:23;16.00;99.90
25504;DHT22;13410;52.114;5.718;2023-03-23T06:45:50;15.90;99.90
25504;DHT22;13410;52.114;5.718;2023-03-23T06:48:16;15.80;99.90
25504;DHT22;13410;52.114;5.718;2023-03-23T06:50:43;15.90;99.90
25504;DHT22;13410;52.114;5.718;2023-03-23T06:53:09;16.00;99.90
25504;DHT22;13410;52.114;5.718;2023-03-23T06:55:35;16.10;99.90
25504;DHT22;13410;52.114;5.718;2023-03-23T06:58:02;16.00;99.90
25504;DHT22;13410;52.114;5.718;2023-03-23T07:00:27;16.00;99.90
25504;DHT22;13410;52.114;5.718;2023-03-23T07:02:54;16.00;99.90
25504;DHT22;13410;52.114;5.718;2023-03-23T07:05:20;16.00;99.90
25504;DHT22;13410;52.114;5.718;2023-03-23T07:07:46;15.90;99.90
25504;DHT22;13410;52.114;5.718;2023-03-23T07:10:11;15.90;99.90
25504;DHT22;13410;52.114;5.718;2023-03-23T07:12:37;15.90;99.90
25504;DHT22;13410;52.114;5.718;2023-03-23T07:15:04;15.90;99.90
25504;DHT22;13410;52.114;5.718;2023-03-23T07:17:30;15.90;99.90
25504;DHT22;13410;52.114;5.718;2023-03-23T07:19:55;15.60;99.90
25504;DHT22;13410;52.114;5.718;2023-03-23T07:22:22;15.60;99.90
25504;DHT22;13410;52.114;5.718;2023-03-23T07:24:48;15.70;99.90
25504;DHT22;13410;52.114;5.718;2023-03-23T07:27:13;15.80;99.90
25504;DHT22;13410;52.114;5.718;2023-03-23T07:29:39;15.80;99.90
25504;DHT22;13410;52.114;5.718;2023-03-23T07:32:06;15.80;99.90
25504;DHT22;13410;52.114;5.718;2023-03-23T07:34:32;15.90;99.90
25504;DHT22;13410;52.114;5.718;2023-03-23T07:36:58;15.80;99.90
25504;DHT22;13410;52.114;5.718;2023-03-23T07:39:24;15.80;99.90
25504;DHT22;13410;52.114;5.718;2023-03-23T07:41:51;15.70;99.90
25504;DHT22;13410;52.114;5.718;2023-03-23T07:44:16;15.80;99.90
25504;DHT22;13410;52.114;5.718;2023-03-23T07:46:42;15.60;99.90
25504;DHT22;13410;52.114;5.718;2023-03-23T07:49:08;15.50;99.90
25504;DHT22;13410;52.114;5.718;2023-03-23T07:51:34;15.60;99.90
25504;DHT22;13410;52.114;5.718;2023-03-23T07:54:00;15.70;99.90
25504;DHT22;13410;52.114;5.718;2023-03-23T07:56:28;15.90;99.90
25504;DHT22;13410;52.114;5.718;2023-03-23T07:58:54;16.00;99.90
25504;DHT22;13410;52.114;5.718;2023-03-23T08:01:20;15.90;99.90
25504;DHT22;13410;52.114;5.718;2023-03-23T08:03:46;15.90;99.90
25504;DHT22;13410;52.114;5.718;2023-03-23T08:06:12;16.20;99.90
25504;DHT22;13410;52.114;5.718;2023-03-23T08:08:37;16.30;99.90
25504;DHT22;13410;52.114;5.718;2023-03-23T08:11:06;16.40;99.90
25504;DHT22;13410;52.114;5.718;2023-03-23T08:13:32;16.60;99.90
25504;DHT22;13410;52.114;5.718;2023-03-23T08:15:59;16.30;99.90
25504;DHT22;13410;52.114;5.718;2023-03-23T08:18:25;16.20;99.90
25504;DHT22;13410;52.114;5.718;2023-03-23T08:20:51;16.10;99.90
25504;DHT22;13410;52.114;5.718;2023-03-23T08:23:19;16.00;99.90
25504;DHT22;13410;52.114;5.718;2023-03-23T08:25:44;16.00;99.90
25504;DHT22;13410;52.114;5.718;2023-03-23T08:28:10;15.80;99.90
25504;DHT22;13410;52.114;5.718;2023-03-23T08:30:38;15.90;99.90
25504;DHT22;13410;52.114;5.718;2023-03-23T08:33:05;16.10;99.90
25504;DHT22;13410;52.114;5.718;2023-03-23T08:35:32;16.20;99.90
25504;DHT22;13410;52.114;5.718;2023-03-23T08:37:58;16.20;99.90
25504;DHT22;13410;52.114;5.718;2023-03-23T08:40:24;16.20;99.90
25504;DHT22;13410;52.114;5.718;2023-03-23T08:42:51;16.20;99.90
25504;DHT22;13410;52.114;5.718;2023-03-23T08:45:20;16.30;99.90
25504;DHT22;13410;52.114;5.718;2023-03-23T08:47:47;16.60;99.90
25504;DHT22;13410;52.114;5.718;2023-03-23T08:50:19;16.90;99.90
25504;DHT22;13410;52.114;5.718;2023-03-23T08:52:46;17.00;99.90
25504;DHT22;13410;52.114;5.718;2023-03-23T08:55:12;17.10;99.90
25504;DHT22;13410;52.114;5.718;2023-03-23T08:57:38;17.10;99.90
25504;DHT22;13410;52.114;5.718;2023-03-23T09:00:07;17.30;99.90
25504;DHT22;13410;52.114;5.718;2023-03-23T09:02:49;17.10;99.90
25504;DHT22;13410;52.114;5.718;2023-03-23T09:05:17;17.10;99.90
25504;DHT22;13410;52.114;5.718;2023-03-23T09:07:46;17.10;99.90
25504;DHT22;13410;52.114;5.718;2023-03-23T09:10:14;17.20;99.90
25504;DHT22;13410;52.114;5.718;2023-03-23T09:12:41;17.20;99.90
25504;DHT22;13410;52.114;5.718;2023-03-23T09:15:09;17.20;99.90
25504;DHT22;13410;52.114;5.718;2023-03-23T09:17:36;17.10;99.90
25504;DHT22;13410;52.114;5.718;2023-03-23T09:20:05;17.00;99.90
25504;DHT22;13410;52.114;5.718;2023-03-23T09:22:39;17.10;99.90
25504;DHT22;13410;52.114;5.718;2023-03-23T09:25:07;17.20;99.90
25504;DHT22;13410;52.114;5.718;2023-03-23T09:27:33;17.40;99.90
25504;DHT22;13410;52.114;5.718;2023-03-23T09:29:59;17.50;99.90
25504;DHT22;13410;52.114;5.718;2023-03-23T09:32:26;17.50;99.90
25504;DHT22;13410;52.114;5.718;2023-03-23T09:34:52;17.70;99.90
25504;DHT22;13410;52.114;5.718;2023-03-23T09:37:20;17.80;99.90
25504;DHT22;13410;52.114;5.718;2023-03-23T09:39:46;17.90;99.90
25504;DHT22;13410;52.114;5.718;2023-03-23T09:45:09;18.20;99.90
25504;DHT22;13410;52.114;5.718;2023-03-23T09:47:55;18.40;99.90
25504;DHT22;13410;52.114;5.718;2023-03-23T09:50:27;18.50;99.90
25504;DHT22;13410;52.114;5.718;2023-03-23T09:53:10;18.60;99.90
25504;DHT22;13410;52.114;5.718;2023-03-23T09:55:37;18.70;99.90
25504;DHT22;13410;52.114;5.718;2023-03-23T10:01:00;18.60;99.90
25504;DHT22;13410;52.114;5.718;2023-03-23T10:03:36;18.50;99.90
25504;DHT22;13410;52.114;5.718;2023-03-23T10:06:03;18.60;99.90
25504;DHT22;13410;52.114;5.718;2023-03-23T10:08:32;18.90;99.90
25504;DHT22;13410;52.114;5.718;2023-03-23T10:11:06;19.10;99.90
25504;DHT22;13410;52.114;5.718;2023-03-23T10:16:07;19.50;99.90
25504;DHT22;13410;52.114;5.718;2023-03-23T10:18:41;19.50;99.90
25504;DHT22;13410;52.114;5.718;2023-03-23T10:21:14;19.20;99.90
25504;DHT22;13410;52.114;5.718;2023-03-23T10:23:51;19.00;99.90
25504;DHT22;13410;52.114;5.718;2023-03-23T10:29:12;19.00;99.90
25504;DHT22;13410;52.114;5.718;2023-03-23T10:31:43;19.00;99.90
25504;DHT22;13410;52.114;5.718;2023-03-23T10:37:27;19.00;99.90
25504;DHT22;13410;52.114;5.718;2023-03-23T10:39:55;18.90;99.90
25504;DHT22;13410;52.114;5.718;2023-03-23T10:44:48;19.00;99.90
25504;DHT22;13410;52.114;5.718;2023-03-23T10:47:14;18.90;99.90
25504;DHT22;13410;52.114;5.718;2023-03-23T10:49:48;18.90;99.90
25504;DHT22;13410;52.114;5.718;2023-03-23T10:55:16;18.90;99.90
25504;DHT22;13410;52.114;5.718;2023-03-23T10:57:47;18.90;99.90
25504;DHT22;13410;52.114;5.718;2023-03-23T11:00:24;18.90;99.90
25504;DHT22;13410;52.114;5.718;2023-03-23T11:03:20;18.80;99.90
25504;DHT22;13410;52.114;5.718;2023-03-23T11:05:53;18.90;99.90
25504;DHT22;13410;52.114;5.718;2023-03-23T11:08:27;19.20;99.90
25504;DHT22;13410;52.114;5.718;2023-03-23T11:13:41;18.70;99.90
25504;DHT22;13410;52.114;5.718;2023-03-23T11:16:10;18.80;99.90
25504;DHT22;13410;52.114;5.718;2023-03-23T11:18:47;18.50;99.90
25504;DHT22;13410;52.114;5.718;2023-03-23T11:21:14;18.40;99.90
25504;DHT22;13410;52.114;5.718;2023-03-23T11:23:46;18.50;99.90
25504;DHT22;13410;52.114;5.718;2023-03-23T11:26:24;18.60;99.90
25504;DHT22;13410;52.114;5.718;2023-03-23T11:29:02;18.40;99.90
25504;DHT22;13410;52.114;5.718;2023-03-23T11:31:33;18.50;99.90
25504;DHT22;13410;52.114;5.718;2023-03-23T11:34:00;18.40;99.90
25504;DHT22;13410;52.114;5.718;2023-03-23T11:36:33;18.30;99.90
25504;DHT22;13410;52.114;5.718;2023-03-23T11:38:59;18.10;99.90
25504;DHT22;13410;52.114;5.718;2023-03-23T11:41:31;18.10;99.90
25504;DHT22;13410;52.114;5.718;2023-03-23T11:44:09;18.20;99.90
25504;DHT22;13410;52.114;5.718;2023-03-23T11:47:00;18.40;99.90
25504;DHT22;13410;52.114;5.718;2023-03-23T11:49:37;18.40;99.90
25504;DHT22;13410;52.114;5.718;2023-03-23T11:52:13;18.60;99.90
25504;DHT22;13410;52.114;5.718;2023-03-23T11:54:57;18.50;99.90
25504;DHT22;13410;52.114;5.718;2023-03-23T11:57:25;18.20;99.90
25504;DHT22;13410;52.114;5.718;2023-03-23T11:59:53;18.30;99.90
25504;DHT22;13410;52.114;5.718;2023-03-23T12:02:34;18.50;99.90
25504;DHT22;13410;52.114;5.718;2023-03-23T12:08:20;19.30;99.90
25504;DHT22;13410;52.114;5.718;2023-03-23T12:10:59;19.50;99.90
25504;DHT22;13410;52.114;5.718;2023-03-23T12:16:40;20.30;99.90
25504;DHT22;13410;52.114;5.718;2023-03-23T12:25:12;20.50;99.90
25504;DHT22;13410;52.114;5.718;2023-03-23T12:30:42;19.80;99.90
25504;DHT22;13410;52.114;5.718;2023-03-23T12:36:21;18.90;99.90
25504;DHT22;13410;52.114;5.718;2023-03-23T12:39:29;18.60;99.90
25504;DHT22;13410;52.114;5.718;2023-03-23T12:42:33;18.70;99.90
25504;DHT22;13410;52.114;5.718;2023-03-23T12:45:07;19.10;99.90
25504;DHT22;13410;52.114;5.718;2023-03-23T12:47:46;19.30;99.90
25504;DHT22;13410;52.114;5.718;2023-03-23T12:53:11;19.50;99.90
25504;DHT22;13410;52.114;5.718;2023-03-23T12:56:03;19.70;99.90
25504;DHT22;13410;52.114;5.718;2023-03-23T12:58:39;20.10;99.90
25504;DHT22;13410;52.114;5.718;2023-03-23T13:01:09;20.00;99.90
25504;DHT22;13410;52.114;5.718;2023-03-23T13:06:44;20.30;99.90
25504;DHT22;13410;52.114;5.718;2023-03-23T13:09:24;20.10;99.90
25504;DHT22;13410;52.114;5.718;2023-03-23T13:11:53;20.10;99.90
25504;DHT22;13410;52.114;5.718;2023-03-23T13:14:41;20.20;99.90
25504;DHT22;13410;52.114;5.718;2023-03-23T13:20:33;20.20;99.90
25504;DHT22;13410;52.114;5.718;2023-03-23T13:23:31;20.10;99.90
25504;DHT22;13410;52.114;5.718;2023-03-23T13:26:11;20.30;99.90
25504;DHT22;13410;52.114;5.718;2023-03-23T13:29:05;20.60;99.90
25504;DHT22;13410;52.114;5.718;2023-03-23T13:31:36;20.90;99.90
25504;DHT22;13410;52.114;5.718;2023-03-23T13:34:32;20.90;99.90
25504;DHT22;13410;52.114;5.718;2023-03-23T13:37:06;21.00;99.90
25504;DHT22;13410;52.114;5.718;2023-03-23T13:44:56;20.70;99.90
25504;DHT22;13410;52.114;5.718;2023-03-23T13:53:14;20.80;99.90
25504;DHT22;13410;52.114;5.718;2023-03-23T13:55:42;20.90;99.90
25504;DHT22;13410;52.114;5.718;2023-03-23T14:03:25;20.20;99.90
25504;DHT22;13410;52.114;5.718;2023-03-23T14:08:35;20.10;99.90
25504;DHT22;13410;52.114;5.718;2023-03-23T14:11:10;20.10;99.90
25504;DHT22;13410;52.114;5.718;2023-03-23T14:14:07;19.90;99.90
25504;DHT22;13410;52.114;5.718;2023-03-23T14:16:43;19.70;99.90
25504;DHT22;13410;52.114;5.718;2023-03-23T14:19:28;19.30;99.90
25504;DHT22;13410;52.114;5.718;2023-03-23T14:21:59;18.80;99.90
25504;DHT22;13410;52.114;5.718;2023-03-23T14:24:29;18.90;99.90
25504;DHT22;13410;52.114;5.718;2023-03-23T14:29:30;19.30;99.90
25504;DHT22;13410;52.114;5.718;2023-03-23T14:31:58;19.40;99.90
25504;DHT22;13410;52.114;5.718;2023-03-23T14:34:26;19.50;99.90
25504;DHT22;13410;52.114;5.718;2023-03-23T14:36:53;19.50;99.90
25504;DHT22;13410;52.114;5.718;2023-03-23T14:39:28;19.50;99.90
25504;DHT22;13410;52.114;5.718;2023-03-23T14:41:55;19.70;99.90
25504;DHT22;13410;52.114;5.718;2023-03-23T14:44:46;19.90;99.90
25504;DHT22;13410;52.114;5.718;2023-03-23T14:47:23;20.20;99.90
25504;DHT22;13410;52.114;5.718;2023-03-23T14:49:53;20.60;99.90
25504;DHT22;13410;52.114;5.718;2023-03-23T14:52:22;20.20;99.90
25504;DHT22;13410;52.114;5.718;2023-03-23T14:54:48;20.40;99.90
25504;DHT22;13410;52.114;5.718;2023-03-23T14:59:50;20.30;99.90
25504;DHT22;13410;52.114;5.718;2023-03-23T15:02:27;20.30;99.90
25504;DHT22;13410;52.114;5.718;2023-03-23T15:05:05;20.30;99.90
25504;DHT22;13410;52.114;5.718;2023-03-23T15:07:35;20.20;99.90
25504;DHT22;13410;52.114;5.718;2023-03-23T15:10:05;20.10;99.90
25504;DHT22;13410;52.114;5.718;2023-03-23T15:12:32;20.10;99.90
25504;DHT22;13410;52.114;5.718;2023-03-23T15:15:02;20.10;99.90
25504;DHT22;13410;52.114;5.718;2023-03-23T15:17:30;20.00;99.90
25504;DHT22;13410;52.114;5.718;2023-03-23T15:19:57;20.10;99.90
25504;DHT22;13410;52.114;5.718;2023-03-23T15:22:29;20.10;99.90
25504;DHT22;13410;52.114;5.718;2023-03-23T15:25:22;20.00;99.90
25504;DHT22;13410;52.114;5.718;2023-03-23T15:27:57;20.00;99.90
25504;DHT22;13410;52.114;5.718;2023-03-23T15:30:30;20.10;99.90
25504;DHT22;13410;52.114;5.718;2023-03-23T15:33:19;19.80;99.90
25504;DHT22;13410;52.114;5.718;2023-03-23T15:35:52;19.70;99.90
25504;DHT22;13410;52.114;5.718;2023-03-23T15:38:34;19.70;99.90
25504;DHT22;13410;52.114;5.718;2023-03-23T15:41:01;19.90;99.90
25504;DHT22;13410;52.114;5.718;2023-03-23T15:43:35;20.00;99.90
25504;DHT22;13410;52.114;5.718;2023-03-23T15:51:25;20.00;99.90
25504;DHT22;13410;52.114;5.718;2023-03-23T15:53:53;19.90;99.90
25504;DHT22;13410;52.114;5.718;2023-03-23T15:56:19;20.10;99.90
25504;DHT22;13410;52.114;5.718;2023-03-23T15:58:45;20.30;99.90
25504;DHT22;13410;52.114;5.718;2023-03-23T16:01:22;20.60;99.90
25504;DHT22;13410;52.114;5.718;2023-03-23T16:03:57;20.90;99.90
25504;DHT22;13410;52.114;5.718;2023-03-23T16:06:25;20.70;99.90
25504;DHT22;13410;52.114;5.718;2023-03-23T16:08:52;20.60;99.90
25504;DHT22;13410;52.114;5.718;2023-03-23T16:11:18;20.60;99.90
25504;DHT22;13410;52.114;5.718;2023-03-23T16:13:44;20.50;99.90
25504;DHT22;13410;52.114;5.718;2023-03-23T16:16:15;20.70;99.90
25504;DHT22;13410;52.114;5.718;2023-03-23T16:18:42;20.70;99.90
25504;DHT22;13410;52.114;5.718;2023-03-23T16:21:08;20.60;99.90
25504;DHT22;13410;52.114;5.718;2023-03-23T16:23:33;20.70;99.90
25504;DHT22;13410;52.114;5.718;2023-03-23T16:26:00;20.80;99.90
25504;DHT22;13410;52.114;5.718;2023-03-23T16:28:26;20.90;99.90
25504;DHT22;13410;52.114;5.718;2023-03-23T16:30:52;20.90;99.90
25504;DHT22;13410;52.114;5.718;2023-03-23T16:33:17;20.90;99.90
25504;DHT22;13410;52.114;5.718;2023-03-23T16:35:43;20.90;99.90
25504;DHT22;13410;52.114;5.718;2023-03-23T16:38:15;20.80;99.90
25504;DHT22;13410;52.114;5.718;2023-03-23T16:40:42;20.90;99.90
25504;DHT22;13410;52.114;5.718;2023-03-23T16:43:08;20.80;99.90
25504;DHT22;13410;52.114;5.718;2023-03-23T16:45:35;20.60;99.90
25504;DHT22;13410;52.114;5.718;2023-03-23T16:48:00;20.70;99.90
25504;DHT22;13410;52.114;5.718;2023-03-23T16:50:27;20.50;99.90
25504;DHT22;13410;52.114;5.718;2023-03-23T16:52:54;20.50;99.90
25504;DHT22;13410;52.114;5.718;2023-03-23T16:55:19;20.50;99.90
25504;DHT22;13410;52.114;5.718;2023-03-23T16:57:45;20.30;99.90
25504;DHT22;13410;52.114;5.718;2023-03-23T17:00:14;20.40;99.90
25504;DHT22;13410;52.114;5.718;2023-03-23T17:02:41;20.20;99.90
25504;DHT22;13410;52.114;5.718;2023-03-23T17:05:09;20.00;99.90
25504;DHT22;13410;52.114;5.718;2023-03-23T17:07:40;19.80;99.90
25504;DHT22;13410;52.114;5.718;2023-03-23T17:10:07;19.80;99.90
25504;DHT22;13410;52.114;5.718;2023-03-23T17:12:33;19.60;99.90
25504;DHT22;13410;52.114;5.718;2023-03-23T17:14:59;19.40;99.90
25504;DHT22;13410;52.114;5.718;2023-03-23T17:17:26;19.60;99.90
25504;DHT22;13410;52.114;5.718;2023-03-23T17:19:52;19.40;99.90
25504;DHT22;13410;52.114;5.718;2023-03-23T17:22:18;19.50;99.90
25504;DHT22;13410;52.114;5.718;2023-03-23T17:24:43;19.40;99.90